createdAt,value
2018-05-31T00:00:01.964Z,9.80
2018-05-31T00:02:31.815Z,9.33
2018-05-31T00:05:06.435Z,8.93
2018-05-31T00:07:36.300Z,8.83
2018-05-31T00:10:10.194Z,8.67
2018-05-31T00:12:39.660Z,9.10
2018-05-31T00:15:09.145Z,9.30
2018-05-31T00:17:38.794Z,9.27
2018-05-31T00:20:08.336Z,8.87
2018-05-31T00:22:38.352Z,8.77
2018-05-31T00:25:07.952Z,8.40
2018-05-31T00:27:37.722Z,8.50
2018-05-31T00:30:07.271Z,7.80
2018-05-31T00:32:37.089Z,8.87
2018-05-31T00:35:07.395Z,8.77
2018-05-31T00:37:37.926Z,9.47
2018-05-31T00:40:07.765Z,9.23
2018-05-31T00:42:37.218Z,9.40
2018-05-31T00:45:06.655Z,8.50
2018-05-31T00:47:36.299Z,8.27
2018-05-31T00:50:06.409Z,8.60
2018-05-31T00:52:36.191Z,8.27
2018-05-31T00:55:07.446Z,8.43
2018-05-31T00:57:37.430Z,8.30
2018-05-31T01:00:07.234Z,8.70
2018-05-31T01:02:36.862Z,8.80
2018-05-31T01:05:06.512Z,7.87
2018-05-31T01:07:36.714Z,9.47
2018-05-31T01:10:06.782Z,10.00
2018-05-31T01:12:36.696Z,9.60
2018-05-31T01:15:06.731Z,9.37
2018-05-31T01:17:36.078Z,9.07
2018-05-31T01:20:05.642Z,9.43
2018-05-31T01:22:35.412Z,9.87
2018-05-31T01:25:05.013Z,9.73
2018-05-31T01:27:37.012Z,10.40
2018-05-31T01:30:06.797Z,10.43
2018-05-31T01:32:36.431Z,10.03
2018-05-31T01:35:05.785Z,10.23
2018-05-31T01:37:39.254Z,9.57
2018-05-31T01:40:08.552Z,10.53
2018-05-31T01:42:39.721Z,9.80
2018-05-31T01:45:09.204Z,9.67
2018-05-31T01:47:40.176Z,10.87
2018-05-31T01:50:09.338Z,10.83
2018-05-31T01:52:44.523Z,11.13
2018-05-31T01:55:13.949Z,10.77
2018-05-31T01:57:43.779Z,11.93
2018-05-31T02:00:12.927Z,11.20
2018-05-31T02:02:42.979Z,11.23
2018-05-31T02:05:13.241Z,12.10
2018-05-31T02:07:42.547Z,11.73
2018-05-31T02:10:14.690Z,11.50
2018-05-31T02:12:44.543Z,13.13
2018-05-31T02:15:13.794Z,14.33
2018-05-31T02:17:44.020Z,12.50
2018-05-31T02:20:13.118Z,12.83
2018-05-31T02:22:46.578Z,11.83
2018-05-31T02:25:15.877Z,12.10
2018-05-31T02:27:45.616Z,11.70
2018-05-31T02:30:14.937Z,12.97
2018-05-31T02:32:45.285Z,11.30
2018-05-31T02:35:14.440Z,11.43
2018-05-31T02:37:43.627Z,12.80
2018-05-31T02:40:13.084Z,12.60
2018-05-31T02:42:43.299Z,12.67
2018-05-31T02:45:12.382Z,12.33
2018-05-31T02:47:41.317Z,12.90
2018-05-31T02:50:10.688Z,13.70
2018-05-31T02:52:40.815Z,13.33
2018-05-31T02:55:10.821Z,14.50
2018-05-31T02:57:40.132Z,13.07
2018-05-31T03:00:09.913Z,13.17
2018-05-31T03:02:39.493Z,12.60
2018-05-31T03:05:08.705Z,13.10
2018-05-31T03:07:38.499Z,13.60
2018-05-31T03:10:09.345Z,13.80
2018-05-31T03:12:38.544Z,13.00
2018-05-31T03:15:09.132Z,13.00
2018-05-31T03:17:38.416Z,12.87
2018-05-31T03:20:08.027Z,14.27
2018-05-31T03:22:37.804Z,13.43
2018-05-31T03:25:07.912Z,12.27
2018-05-31T03:27:37.606Z,13.10
2018-05-31T03:30:06.984Z,12.53
2018-05-31T03:32:38.964Z,11.17
2018-05-31T03:35:08.986Z,11.07
2018-05-31T03:37:38.302Z,12.70
2018-05-31T03:40:07.732Z,13.37
2018-05-31T03:42:37.405Z,13.83
2018-05-31T03:45:07.211Z,12.57
2018-05-31T03:47:37.074Z,12.47
2018-05-31T03:50:07.093Z,13.30
2018-05-31T03:52:36.783Z,12.73
2018-05-31T03:55:06.277Z,13.53
2018-05-31T03:57:35.533Z,13.37
2018-05-31T04:00:05.301Z,12.10
2018-05-31T04:02:35.047Z,11.87
2018-05-31T04:05:04.281Z,13.47
2018-05-31T04:07:34.539Z,13.90
2018-05-31T04:10:03.553Z,14.20
2018-05-31T04:12:32.839Z,12.83
2018-05-31T04:15:07.200Z,12.83
2018-05-31T04:17:36.319Z,13.83
2018-05-31T04:20:05.678Z,13.37
2018-05-31T04:22:35.179Z,14.13
2018-05-31T04:25:04.542Z,14.73
2018-05-31T04:27:33.689Z,13.00
2018-05-31T04:30:03.752Z,13.63
2018-05-31T04:32:32.934Z,14.40
2018-05-31T04:35:02.612Z,13.43
2018-05-31T04:37:31.859Z,14.63
2018-05-31T04:40:02.449Z,14.00
2018-05-31T04:42:32.144Z,12.93
2018-05-31T04:45:01.720Z,13.50
2018-05-31T04:47:30.904Z,13.23
2018-05-31T04:50:00.458Z,13.10
2018-05-31T04:52:29.978Z,13.63
2018-05-31T04:54:59.296Z,14.70
2018-05-31T04:57:28.780Z,14.37
2018-05-31T04:59:58.583Z,14.03
2018-05-31T05:02:28.082Z,13.97
2018-05-31T05:04:57.720Z,13.50
2018-05-31T05:07:27.340Z,13.57
2018-05-31T05:09:57.028Z,13.33
2018-05-31T05:12:26.010Z,12.33
2018-05-31T05:14:55.040Z,12.03
2018-05-31T05:17:24.134Z,12.87
2018-05-31T05:19:53.161Z,12.27
2018-05-31T05:22:22.694Z,11.37
2018-05-31T05:24:51.717Z,12.70
2018-05-31T05:27:21.784Z,12.67
2018-05-31T05:29:51.176Z,12.67
2018-05-31T05:32:21.109Z,12.17
2018-05-31T05:34:50.195Z,12.07
2018-05-31T05:37:20.185Z,11.47
2018-05-31T05:39:49.681Z,10.73
2018-05-31T05:42:19.526Z,11.00
2018-05-31T05:44:49.052Z,10.00
2018-05-31T05:47:18.458Z,9.77
2018-05-31T05:49:47.712Z,9.37
2018-05-31T05:52:16.829Z,10.57
2018-05-31T05:54:45.830Z,9.40
2018-05-31T05:57:14.252Z,9.53
2018-05-31T05:59:43.844Z,10.10
2018-05-31T06:02:13.208Z,9.53
2018-05-31T06:04:42.714Z,8.77
2018-05-31T06:07:12.040Z,7.97
2018-05-31T06:09:41.797Z,8.47
2018-05-31T06:12:10.942Z,7.80
2018-05-31T06:14:41.299Z,7.37
2018-05-31T06:17:09.932Z,7.47
2018-05-31T06:19:39.589Z,7.00
2018-05-31T06:22:09.150Z,6.77
2018-05-31T06:24:38.353Z,7.23
2018-05-31T06:27:07.909Z,5.90
2018-05-31T06:29:37.475Z,6.13
2018-05-31T06:32:08.054Z,6.10
2018-05-31T06:34:39.079Z,6.47
2018-05-31T06:37:09.181Z,6.73
2018-05-31T06:39:38.600Z,6.90
2018-05-31T06:42:09.490Z,7.30
2018-05-31T06:44:38.461Z,7.53
2018-05-31T06:47:07.981Z,6.57
2018-05-31T06:49:40.264Z,6.87
2018-05-31T06:52:10.566Z,7.50
2018-05-31T06:54:47.615Z,7.20
2018-05-31T06:57:17.464Z,6.90
2018-05-31T06:59:47.467Z,6.83
2018-05-31T07:02:21.406Z,6.87
2018-05-31T07:04:51.197Z,6.30
2018-05-31T07:07:20.714Z,6.10
2018-05-31T07:09:53.717Z,5.77
2018-05-31T07:12:22.843Z,4.90
2018-05-31T07:14:52.123Z,4.90
2018-05-31T07:17:22.545Z,4.07
2018-05-31T07:19:51.735Z,4.20
2018-05-31T07:22:23.507Z,3.77
2018-05-31T07:24:52.429Z,4.13
2018-05-31T07:27:21.980Z,3.90
2018-05-31T07:29:50.772Z,3.37
2018-05-31T07:32:20.354Z,4.27
2018-05-31T07:34:50.102Z,4.00
2018-05-31T07:37:19.459Z,4.13
2018-05-31T07:40:00.687Z,4.10
2018-05-31T07:42:29.897Z,3.30
2018-05-31T07:45:01.247Z,3.50
2018-05-31T07:47:31.402Z,3.83
2018-05-31T07:50:01.080Z,3.67
2018-05-31T07:52:30.261Z,4.03
2018-05-31T07:54:59.862Z,4.20
2018-05-31T07:57:28.815Z,4.47
2018-05-31T07:59:59.137Z,4.47
2018-05-31T08:02:28.429Z,3.93
2018-05-31T08:04:58.434Z,3.97
2018-05-31T08:07:33.876Z,3.77
2018-05-31T08:10:14.114Z,3.87
2018-05-31T08:12:43.764Z,3.47
2018-05-31T08:15:12.462Z,3.77
2018-05-31T08:17:41.906Z,3.07
2018-05-31T08:20:11.972Z,3.03
2018-05-31T08:22:42.035Z,2.80
2018-05-31T08:25:12.252Z,3.10
2018-05-31T08:27:42.059Z,3.03
2018-05-31T08:30:11.672Z,2.77
2018-05-31T08:32:57.677Z,3.10
2018-05-31T08:35:26.847Z,2.70
2018-05-31T08:37:57.411Z,2.60
2018-05-31T08:40:27.389Z,2.50
2018-05-31T08:42:57.370Z,2.80
2018-05-31T08:45:26.448Z,2.40
2018-05-31T08:48:01.627Z,2.53
2018-05-31T08:50:31.149Z,2.37
2018-05-31T08:52:58.805Z,2.83
2018-05-31T08:55:32.598Z,2.80
2018-05-31T08:58:00.335Z,2.70
2018-05-31T09:00:34.765Z,2.53
2018-05-31T09:03:04.682Z,2.50
2018-05-31T09:05:35.762Z,3.17
2018-05-31T09:08:05.400Z,2.70
2018-05-31T09:10:34.721Z,2.90
2018-05-31T09:13:04.462Z,2.87
2018-05-31T09:15:33.722Z,2.80
2018-05-31T09:18:02.608Z,3.13
2018-05-31T09:20:32.976Z,3.17
2018-05-31T09:23:04.039Z,2.67
2018-05-31T09:25:33.014Z,3.00
2018-05-31T09:28:02.405Z,3.00
2018-05-31T09:30:32.733Z,2.80
2018-05-31T09:33:02.152Z,2.97
2018-05-31T09:35:31.000Z,2.90
2018-05-31T09:38:06.853Z,2.47
2018-05-31T09:40:35.467Z,2.80
2018-05-31T09:43:06.029Z,3.07
2018-05-31T09:45:35.182Z,3.10
2018-05-31T09:48:05.432Z,2.90
2018-05-31T09:50:34.595Z,2.97
2018-05-31T09:53:03.955Z,2.93
2018-05-31T09:55:33.181Z,3.23
2018-05-31T09:58:05.469Z,3.50
2018-05-31T10:00:38.628Z,3.03
2018-05-31T10:03:08.200Z,2.83
2018-05-31T10:05:37.952Z,3.73
2018-05-31T10:08:14.131Z,3.57
2018-05-31T10:10:42.608Z,3.20
2018-05-31T10:13:13.772Z,3.63
2018-05-31T10:15:43.302Z,3.67
2018-05-31T10:18:12.668Z,3.57
2018-05-31T10:20:41.020Z,3.57
2018-05-31T10:23:10.647Z,3.70
2018-05-31T10:25:41.059Z,3.53
2018-05-31T10:28:10.006Z,3.43
2018-05-31T10:30:39.606Z,3.30
2018-05-31T10:33:08.478Z,4.50
2018-05-31T10:38:31.862Z,4.03
2018-05-31T10:41:01.424Z,4.07
2018-05-31T10:43:32.766Z,4.00
2018-05-31T10:46:07.111Z,3.40
2018-05-31T10:48:35.803Z,3.53
2018-05-31T10:51:07.801Z,3.83
2018-05-31T10:53:36.081Z,3.60
2018-05-31T10:56:04.373Z,4.20
2018-05-31T10:58:33.266Z,4.10
2018-05-31T11:01:03.224Z,3.15
2018-05-31T11:03:31.774Z,4.15
2018-05-31T11:05:59.858Z,3.37
2018-05-31T11:08:31.703Z,3.50
2018-05-31T11:10:59.831Z,3.25
2018-05-31T11:13:27.802Z,3.20
2018-05-31T11:15:56.330Z,2.92
2018-05-31T11:18:30.750Z,3.92
2018-05-31T11:20:59.158Z,3.92
2018-05-31T11:23:27.510Z,4.00
2018-05-31T11:25:56.891Z,4.07
2018-05-31T11:28:25.337Z,3.83
2018-05-31T11:30:57.847Z,3.85
2018-05-31T11:33:26.631Z,4.65
2018-05-31T11:35:54.923Z,4.10
2018-05-31T11:38:23.472Z,4.95
2018-05-31T11:40:51.250Z,4.57
2018-05-31T11:43:20.039Z,4.60
2018-05-31T11:45:49.903Z,5.30
2018-05-31T11:48:19.153Z,4.53
2018-05-31T11:50:51.171Z,5.15
2018-05-31T11:53:20.929Z,4.90
2018-05-31T11:55:54.516Z,6.90
2018-05-31T11:58:22.794Z,6.65
2018-05-31T12:00:52.224Z,7.45
2018-05-31T12:03:26.783Z,6.60
2018-05-31T12:05:59.807Z,7.10
2018-05-31T12:08:31.319Z,8.02
2018-05-31T12:17:05.871Z,7.70
2018-05-31T12:19:33.457Z,8.67
2018-05-31T12:22:01.355Z,8.07
2018-05-31T12:24:31.431Z,9.32
2018-05-31T12:27:00.130Z,7.65
2018-05-31T12:29:41.246Z,8.00
2018-05-31T12:32:12.079Z,7.40
2018-05-31T12:34:46.964Z,7.62
2018-05-31T12:37:15.131Z,8.30
2018-05-31T12:39:43.867Z,9.57
2018-05-31T12:42:12.957Z,7.78
2018-05-31T12:44:40.849Z,9.25
2018-05-31T12:47:21.881Z,9.25
2018-05-31T12:49:51.106Z,8.40
2018-05-31T12:52:19.304Z,9.07
2018-05-31T12:54:48.104Z,9.23
2018-05-31T12:57:19.073Z,8.20
2018-05-31T12:59:54.319Z,9.95
2018-05-31T13:02:35.104Z,11.98
2018-05-31T13:05:05.393Z,11.48
2018-05-31T13:07:33.867Z,13.40
2018-05-31T13:10:03.857Z,14.55
2018-05-31T13:12:42.700Z,13.55
2018-05-31T13:15:11.196Z,13.20
2018-05-31T13:17:39.288Z,10.80
2018-05-31T13:20:07.438Z,11.07
2018-05-31T13:22:34.990Z,12.98
2018-05-31T13:25:05.578Z,11.80
2018-05-31T13:27:33.914Z,11.70
2018-05-31T13:30:02.488Z,13.02
2018-05-31T13:32:33.102Z,13.65
2018-05-31T13:35:01.015Z,10.82
2018-05-31T13:37:33.085Z,11.40
2018-05-31T13:40:02.256Z,11.70
2018-05-31T13:42:30.967Z,12.35
2018-05-31T13:44:59.945Z,11.12
2018-05-31T13:47:28.792Z,10.50
2018-05-31T13:49:58.992Z,9.77
2018-05-31T13:52:27.415Z,10.50
2018-05-31T13:54:56.197Z,9.32
2018-05-31T13:57:24.424Z,10.57
2018-05-31T13:59:53.980Z,10.15
2018-05-31T14:02:22.426Z,9.90
2018-05-31T14:04:50.585Z,10.02
2018-05-31T14:07:22.092Z,8.88
2018-05-31T14:09:56.377Z,10.68
2018-05-31T14:12:26.161Z,9.68
2018-05-31T14:14:54.538Z,8.52
2018-05-31T14:17:22.168Z,10.63
2018-05-31T14:19:50.186Z,11.27
2018-05-31T14:22:18.328Z,12.70
2018-05-31T14:24:46.514Z,11.52
2018-05-31T14:27:19.024Z,11.25
2018-05-31T14:29:47.192Z,9.77
2018-05-31T14:32:15.914Z,9.85
2018-05-31T14:34:44.160Z,11.07
2018-05-31T14:37:12.814Z,10.70
2018-05-31T14:39:41.229Z,9.60
2018-05-31T14:42:09.868Z,11.15
2018-05-31T14:44:38.372Z,11.40
2018-05-31T14:47:06.639Z,11.55
2018-05-31T14:49:35.031Z,12.65
2018-05-31T14:52:04.395Z,11.18
2018-05-31T14:54:33.240Z,11.30
2018-05-31T14:57:01.907Z,10.90
2018-05-31T14:59:30.891Z,10.65
2018-05-31T15:01:59.746Z,11.38
2018-05-31T15:04:27.714Z,10.60
2018-05-31T15:06:56.710Z,11.80
2018-05-31T15:09:24.691Z,9.30
2018-05-31T15:11:52.909Z,8.52
2018-05-31T15:14:21.906Z,7.78
2018-05-31T15:16:51.009Z,8.93
2018-05-31T15:19:19.440Z,9.98
2018-05-31T15:21:48.289Z,8.52
2018-05-31T15:24:16.304Z,9.35
2018-05-31T15:26:44.026Z,9.20
2018-05-31T15:29:17.077Z,8.05
2018-05-31T15:31:44.937Z,8.15
2018-05-31T15:34:13.135Z,9.13
2018-05-31T15:36:41.706Z,8.52
2018-05-31T15:39:10.305Z,10.18
2018-05-31T15:41:38.113Z,9.10
2018-05-31T15:44:06.591Z,8.93
2018-05-31T15:46:34.438Z,6.95
2018-05-31T15:49:03.007Z,8.38
2018-05-31T15:51:30.862Z,8.82
2018-05-31T15:53:59.487Z,8.45
2018-05-31T15:56:27.781Z,7.20
2018-05-31T15:58:55.950Z,8.13
2018-05-31T16:01:28.509Z,8.00
2018-05-31T16:03:56.747Z,8.27
2018-05-31T16:06:25.536Z,8.32
2018-05-31T16:08:53.778Z,6.45
2018-05-31T16:11:21.729Z,6.35
2018-05-31T16:13:50.297Z,6.20
2018-05-31T16:16:19.410Z,5.55
2018-05-31T16:18:54.420Z,5.95
2018-05-31T16:21:22.633Z,6.55
2018-05-31T16:23:53.121Z,6.12
2018-05-31T16:26:22.716Z,6.43
2018-05-31T16:28:51.338Z,8.02
2018-05-31T16:31:21.460Z,7.05
2018-05-31T16:33:49.739Z,6.68
2018-05-31T16:36:18.284Z,7.70
2018-05-31T16:38:47.091Z,6.10
2018-05-31T16:41:19.622Z,8.32
2018-05-31T16:43:48.009Z,9.10
2018-05-31T16:46:16.413Z,9.60
2018-05-31T16:48:44.807Z,10.40
2018-05-31T16:51:13.183Z,11.70
2018-05-31T16:53:41.604Z,12.23
2018-05-31T16:56:10.646Z,13.50
2018-05-31T16:58:39.094Z,10.98
2018-05-31T17:01:07.743Z,12.25
2018-05-31T17:03:37.165Z,11.45
2018-05-31T17:06:06.192Z,10.70
2018-05-31T17:08:35.243Z,11.95
2018-05-31T17:11:03.986Z,11.02
2018-05-31T17:13:32.994Z,10.20
2018-05-31T17:16:02.145Z,12.27
2018-05-31T17:18:31.299Z,10.20
2018-05-31T17:21:00.138Z,10.20
2018-05-31T17:23:33.368Z,11.55
2018-05-31T17:26:02.306Z,11.95
2018-05-31T17:28:31.870Z,9.20
2018-05-31T17:31:13.854Z,9.10
2018-05-31T17:33:43.500Z,10.48
2018-05-31T17:36:12.718Z,11.73
2018-05-31T17:38:44.389Z,11.15
2018-05-31T17:41:12.931Z,11.23
2018-05-31T17:43:42.154Z,11.57
2018-05-31T17:46:11.514Z,11.93
2018-05-31T17:48:40.904Z,12.15
2018-05-31T17:51:10.254Z,11.30
2018-05-31T17:53:38.866Z,11.02
2018-05-31T17:56:07.542Z,11.05
2018-05-31T17:58:43.367Z,10.93
2018-05-31T18:01:12.476Z,12.05
2018-05-31T18:03:43.089Z,11.43
2018-05-31T18:06:12.317Z,12.55
2018-05-31T18:08:41.195Z,13.23
2018-05-31T18:11:10.374Z,12.07
2018-05-31T18:13:39.167Z,10.97
2018-05-31T18:16:16.772Z,11.67
2018-05-31T18:18:45.605Z,9.73
2018-05-31T18:21:16.286Z,10.37
2018-05-31T18:23:45.089Z,9.30
2018-05-31T18:26:18.679Z,9.20
2018-05-31T18:28:47.941Z,8.90
2018-05-31T18:31:17.319Z,9.43
2018-05-31T18:33:46.215Z,8.93
2018-05-31T18:36:15.569Z,9.43
2018-05-31T18:38:49.434Z,9.07
2018-05-31T18:41:18.730Z,8.90
2018-05-31T18:43:48.008Z,9.23
2018-05-31T18:46:16.921Z,9.97
2018-05-31T18:48:58.916Z,9.13
2018-05-31T18:51:28.351Z,8.93
2018-05-31T18:54:11.216Z,9.87
2018-05-31T18:56:40.743Z,10.50
2018-05-31T18:59:10.306Z,9.93
2018-05-31T19:01:39.690Z,10.13
2018-05-31T19:04:08.574Z,9.53
2018-05-31T19:06:38.328Z,9.53
2018-05-31T19:09:07.235Z,10.47
2018-05-31T19:11:36.430Z,9.40
2018-05-31T19:14:05.776Z,10.10
2018-05-31T19:16:42.173Z,9.80
2018-05-31T19:19:16.671Z,9.73
2018-05-31T19:21:46.386Z,11.00
2018-05-31T19:24:21.257Z,11.77
2018-05-31T19:26:50.107Z,10.70
2018-05-31T19:29:19.161Z,10.60
2018-05-31T19:31:48.918Z,11.40
2018-05-31T19:34:23.151Z,10.87
2018-05-31T19:36:58.102Z,10.53
2018-05-31T19:39:27.782Z,10.33
2018-05-31T19:41:56.556Z,10.83
2018-05-31T19:44:31.156Z,11.10
2018-05-31T19:46:59.539Z,11.23
2018-05-31T19:49:32.695Z,10.53
2018-05-31T19:52:07.172Z,11.87
2018-05-31T19:54:36.448Z,12.73
2018-05-31T19:57:11.235Z,11.43
2018-05-31T19:59:46.044Z,12.53
2018-05-31T20:02:20.863Z,13.80
2018-05-31T20:04:49.926Z,14.17
2018-05-31T20:07:19.754Z,14.07
2018-05-31T20:09:49.188Z,14.70
2018-05-31T20:12:21.257Z,13.33
2018-05-31T20:14:48.374Z,13.90
2018-05-31T20:17:18.725Z,15.30
2018-05-31T20:19:49.289Z,14.37
2018-05-31T20:22:20.157Z,16.00
2018-05-31T20:24:51.443Z,15.33
2018-05-31T20:27:23.122Z,14.57
2018-05-31T20:29:53.132Z,15.20
2018-05-31T20:32:23.440Z,14.57
2018-05-31T20:34:53.684Z,13.90
2018-05-31T20:37:23.840Z,14.17
2018-05-31T20:39:53.105Z,14.43
2018-05-31T20:42:22.379Z,13.77
2018-05-31T20:44:51.702Z,15.37
2018-05-31T20:47:21.147Z,13.33
2018-05-31T20:49:50.234Z,15.10
2018-05-31T20:52:19.729Z,14.20
2018-05-31T20:54:49.225Z,15.33
2018-05-31T20:57:18.679Z,15.70
2018-05-31T20:59:48.015Z,15.80
2018-05-31T21:02:17.249Z,14.43
2018-05-31T21:04:46.862Z,14.13
2018-05-31T21:07:16.157Z,15.23
2018-05-31T21:09:45.710Z,15.10
2018-05-31T21:12:15.079Z,14.60
2018-05-31T21:14:44.882Z,14.57
2018-05-31T21:17:16.296Z,14.57
2018-05-31T21:19:45.347Z,13.73
2018-05-31T21:22:14.407Z,15.47
2018-05-31T21:24:44.220Z,15.87
2018-05-31T21:27:13.754Z,15.70
2018-05-31T21:29:42.937Z,17.17
2018-05-31T21:32:11.923Z,15.03
2018-05-31T21:34:40.805Z,16.20
2018-05-31T21:37:12.715Z,16.37
2018-05-31T21:39:41.583Z,16.83
2018-05-31T21:42:10.521Z,16.83
2018-05-31T21:44:39.769Z,16.83
2018-05-31T21:47:08.888Z,16.03
2018-05-31T21:49:37.969Z,16.40
2018-05-31T21:52:06.657Z,15.93
2018-05-31T21:54:35.443Z,16.57
2018-05-31T21:57:05.367Z,15.17
2018-05-31T21:59:34.491Z,15.20
2018-05-31T22:02:03.178Z,16.20
2018-05-31T22:04:31.888Z,15.47
2018-05-31T22:07:00.938Z,14.47
2018-05-31T22:09:30.380Z,15.17
2018-05-31T22:11:58.918Z,15.17
2018-05-31T22:14:28.833Z,14.57
2018-05-31T22:16:57.592Z,15.60
2018-05-31T22:19:32.223Z,15.53
2018-05-31T22:22:01.570Z,16.27
2018-05-31T22:24:31.183Z,14.67
2018-05-31T22:27:00.085Z,15.30
2018-05-31T22:29:28.847Z,15.60
2018-05-31T22:31:57.845Z,15.50
2018-05-31T22:34:27.578Z,15.80
2018-05-31T22:36:56.787Z,16.87
2018-05-31T22:39:25.655Z,15.30
2018-05-31T22:41:59.565Z,16.60
2018-05-31T22:44:28.153Z,15.63
2018-05-31T22:46:57.085Z,15.50
2018-05-31T22:49:34.931Z,15.93
2018-05-31T22:52:04.089Z,15.63
2018-05-31T22:54:33.314Z,15.27
2018-05-31T22:57:02.268Z,15.80
2018-05-31T22:59:30.930Z,15.43
2018-05-31T23:01:59.902Z,14.83
2018-05-31T23:04:33.225Z,16.70
2018-05-31T23:07:02.715Z,14.77
2018-05-31T23:09:54.360Z,14.57
2018-05-31T23:12:23.807Z,15.77
2018-05-31T23:14:53.871Z,15.73
2018-05-31T23:17:22.268Z,15.30
2018-05-31T23:19:51.358Z,13.17
2018-05-31T23:22:24.715Z,15.33
2018-05-31T23:24:53.400Z,15.30
2018-05-31T23:27:28.079Z,16.10
2018-05-31T23:29:57.241Z,16.33
2018-05-31T23:32:30.369Z,16.53
2018-05-31T23:34:59.593Z,15.70
2018-05-31T23:37:28.381Z,15.57
2018-05-31T23:39:57.820Z,14.30
2018-05-31T23:42:40.751Z,15.13
2018-05-31T23:45:10.032Z,16.23
2018-05-31T23:47:43.694Z,16.13
2018-05-31T23:50:12.730Z,15.67
2018-05-31T23:52:44.314Z,15.97
2018-05-31T23:55:13.602Z,17.27
2018-05-31T23:57:49.816Z,16.67
